sensor_id;sensor_type;location;lat;lon;timestamp;P1;durP1;ratioP1;P2;durP2;ratioP2
505;SDS011;551;48.524;9.056;2022-12-20T00:01:28;52.90;;;31.17;;
505;SDS011;551;48.524;9.056;2022-12-20T00:03:56;53.60;;;29.20;;
505;SDS011;551;48.524;9.056;2022-12-20T00:06:23;47.50;;;28.47;;
505;SDS011;551;48.524;9.056;2022-12-20T00:08:56;55.67;;;31.50;;
505;SDS011;551;48.524;9.056;2022-12-20T00:11:24;51.20;;;29.97;;
505;SDS011;551;48.524;9.056;2022-12-20T00:13:50;48.57;;;27.10;;
505;SDS011;551;48.524;9.056;2022-12-20T00:16:16;45.03;;;27.43;;
505;SDS011;551;48.524;9.056;2022-12-20T00:18:44;45.67;;;27.50;;
505;SDS011;551;48.524;9.056;2022-12-20T00:21:10;48.97;;;28.73;;
505;SDS011;551;48.524;9.056;2022-12-20T00:23:38;49.37;;;26.07;;
505;SDS011;551;48.524;9.056;2022-12-20T00:26:05;50.97;;;27.73;;
505;SDS011;551;48.524;9.056;2022-12-20T00:28:33;46.03;;;27.40;;
505;SDS011;551;48.524;9.056;2022-12-20T00:31:00;47.50;;;28.73;;
505;SDS011;551;48.524;9.056;2022-12-20T00:33:27;48.20;;;28.73;;
505;SDS011;551;48.524;9.056;2022-12-20T00:35:56;43.03;;;26.30;;
505;SDS011;551;48.524;9.056;2022-12-20T00:38:22;47.97;;;27.27;;
505;SDS011;551;48.524;9.056;2022-12-20T00:40:58;45.30;;;26.20;;
505;SDS011;551;48.524;9.056;2022-12-20T00:43:31;46.50;;;27.17;;
505;SDS011;551;48.524;9.056;2022-12-20T00:45:57;46.43;;;27.10;;
505;SDS011;551;48.524;9.056;2022-12-20T00:48:24;46.40;;;26.87;;
505;SDS011;551;48.524;9.056;2022-12-20T00:50:50;56.33;;;29.87;;
505;SDS011;551;48.524;9.056;2022-12-20T00:53:16;60.80;;;28.43;;
505;SDS011;551;48.524;9.056;2022-12-20T00:55:43;47.83;;;28.47;;
505;SDS011;551;48.524;9.056;2022-12-20T00:58:09;47.93;;;26.03;;
505;SDS011;551;48.524;9.056;2022-12-20T01:00:36;55.80;;;28.60;;
505;SDS011;551;48.524;9.056;2022-12-20T01:03:02;48.07;;;26.37;;
505;SDS011;551;48.524;9.056;2022-12-20T01:05:28;56.70;;;28.73;;
505;SDS011;551;48.524;9.056;2022-12-20T01:07:53;48.47;;;27.03;;
505;SDS011;551;48.524;9.056;2022-12-20T01:10:19;49.43;;;28.80;;
505;SDS011;551;48.524;9.056;2022-12-20T01:12:44;43.40;;;27.77;;
505;SDS011;551;48.524;9.056;2022-12-20T01:15:10;44.70;;;27.90;;
505;SDS011;551;48.524;9.056;2022-12-20T01:17:36;41.20;;;26.43;;
505;SDS011;551;48.524;9.056;2022-12-20T01:20:01;46.43;;;27.93;;
505;SDS011;551;48.524;9.056;2022-12-20T01:22:28;58.43;;;29.53;;
505;SDS011;551;48.524;9.056;2022-12-20T01:24:54;45.70;;;25.40;;
505;SDS011;551;48.524;9.056;2022-12-20T01:27:19;45.57;;;25.83;;
505;SDS011;551;48.524;9.056;2022-12-20T01:29:45;52.13;;;27.73;;
505;SDS011;551;48.524;9.056;2022-12-20T01:32:11;43.17;;;24.13;;
505;SDS011;551;48.524;9.056;2022-12-20T01:34:36;46.80;;;27.97;;
505;SDS011;551;48.524;9.056;2022-12-20T01:37:02;53.33;;;28.47;;
505;SDS011;551;48.524;9.056;2022-12-20T01:39:27;49.27;;;28.20;;
505;SDS011;551;48.524;9.056;2022-12-20T01:41:53;49.07;;;26.93;;
505;SDS011;551;48.524;9.056;2022-12-20T01:46:44;47.77;;;28.90;;
505;SDS011;551;48.524;9.056;2022-12-20T01:51:46;47.40;;;27.67;;
505;SDS011;551;48.524;9.056;2022-12-20T01:54:18;48.03;;;28.60;;
505;SDS011;551;48.524;9.056;2022-12-20T01:57:01;45.90;;;26.70;;
505;SDS011;551;48.524;9.056;2022-12-20T01:59:31;47.80;;;26.37;;
505;SDS011;551;48.524;9.056;2022-12-20T02:02:01;40.70;;;26.23;;
505;SDS011;551;48.524;9.056;2022-12-20T02:04:31;45.97;;;27.90;;
505;SDS011;551;48.524;9.056;2022-12-20T02:06:57;42.97;;;25.90;;
505;SDS011;551;48.524;9.056;2022-12-20T02:09:24;36.10;;;25.33;;
505;SDS011;551;48.524;9.056;2022-12-20T02:11:57;40.83;;;24.83;;
505;SDS011;551;48.524;9.056;2022-12-20T02:31:29;38.77;;;24.23;;
505;SDS011;551;48.524;9.056;2022-12-20T02:34:01;44.23;;;23.30;;
505;SDS011;551;48.524;9.056;2022-12-20T02:36:27;33.30;;;21.90;;
505;SDS011;551;48.524;9.056;2022-12-20T02:38:53;36.00;;;23.73;;
505;SDS011;551;48.524;9.056;2022-12-20T02:41:19;35.70;;;22.50;;
505;SDS011;551;48.524;9.056;2022-12-20T02:44:13;34.40;;;22.40;;
505;SDS011;551;48.524;9.056;2022-12-20T02:46:59;32.97;;;21.70;;
505;SDS011;551;48.524;9.056;2022-12-20T02:49:28;31.07;;;20.20;;
505;SDS011;551;48.524;9.056;2022-12-20T02:51:56;33.00;;;19.90;;
505;SDS011;551;48.524;9.056;2022-12-20T02:54:24;37.07;;;20.50;;
505;SDS011;551;48.524;9.056;2022-12-20T02:59:24;34.80;;;21.43;;
505;SDS011;551;48.524;9.056;2022-12-20T03:01:54;41.47;;;21.80;;
505;SDS011;551;48.524;9.056;2022-12-20T03:04:22;31.57;;;20.07;;
505;SDS011;551;48.524;9.056;2022-12-20T03:07:00;36.13;;;21.37;;
505;SDS011;551;48.524;9.056;2022-12-20T03:09:29;31.73;;;21.17;;
505;SDS011;551;48.524;9.056;2022-12-20T03:11:56;40.67;;;22.10;;
505;SDS011;551;48.524;9.056;2022-12-20T03:14:21;32.10;;;19.70;;
505;SDS011;551;48.524;9.056;2022-12-20T03:16:47;30.70;;;20.90;;
505;SDS011;551;48.524;9.056;2022-12-20T03:19:12;36.37;;;21.80;;
505;SDS011;551;48.524;9.056;2022-12-20T03:21:38;36.33;;;22.47;;
505;SDS011;551;48.524;9.056;2022-12-20T03:24:04;40.77;;;22.80;;
505;SDS011;551;48.524;9.056;2022-12-20T03:26:29;37.20;;;22.90;;
505;SDS011;551;48.524;9.056;2022-12-20T03:28:55;38.30;;;23.67;;
505;SDS011;551;48.524;9.056;2022-12-20T03:31:20;32.60;;;22.00;;
505;SDS011;551;48.524;9.056;2022-12-20T03:33:46;40.30;;;22.63;;
505;SDS011;551;48.524;9.056;2022-12-20T03:36:12;37.27;;;24.20;;
505;SDS011;551;48.524;9.056;2022-12-20T03:38:37;41.27;;;21.97;;
505;SDS011;551;48.524;9.056;2022-12-20T03:41:03;35.50;;;23.43;;
505;SDS011;551;48.524;9.056;2022-12-20T03:43:28;35.60;;;22.37;;
505;SDS011;551;48.524;9.056;2022-12-20T03:45:54;40.43;;;22.40;;
505;SDS011;551;48.524;9.056;2022-12-20T03:48:20;39.07;;;23.70;;
505;SDS011;551;48.524;9.056;2022-12-20T03:50:46;46.53;;;24.63;;
505;SDS011;551;48.524;9.056;2022-12-20T03:53:12;41.03;;;24.03;;
505;SDS011;551;48.524;9.056;2022-12-20T03:55:38;43.47;;;22.83;;
505;SDS011;551;48.524;9.056;2022-12-20T03:58:04;40.30;;;23.47;;
505;SDS011;551;48.524;9.056;2022-12-20T04:00:29;41.30;;;25.23;;
505;SDS011;551;48.524;9.056;2022-12-20T04:02:55;40.23;;;25.37;;
505;SDS011;551;48.524;9.056;2022-12-20T04:05:20;38.90;;;24.30;;
505;SDS011;551;48.524;9.056;2022-12-20T04:07:46;38.23;;;24.70;;
505;SDS011;551;48.524;9.056;2022-12-20T04:10:11;43.70;;;25.97;;
505;SDS011;551;48.524;9.056;2022-12-20T04:12:37;38.67;;;25.10;;
505;SDS011;551;48.524;9.056;2022-12-20T04:15:03;37.47;;;24.13;;
505;SDS011;551;48.524;9.056;2022-12-20T04:17:28;39.27;;;24.27;;
505;SDS011;551;48.524;9.056;2022-12-20T04:19:54;43.93;;;25.43;;
505;SDS011;551;48.524;9.056;2022-12-20T04:22:19;51.37;;;26.80;;
505;SDS011;551;48.524;9.056;2022-12-20T04:24:45;49.70;;;30.73;;
505;SDS011;551;48.524;9.056;2022-12-20T04:27:11;44.60;;;27.40;;
505;SDS011;551;48.524;9.056;2022-12-20T04:29:36;41.83;;;28.00;;
505;SDS011;551;48.524;9.056;2022-12-20T04:32:02;51.10;;;28.37;;
505;SDS011;551;48.524;9.056;2022-12-20T04:34:27;45.63;;;26.63;;
505;SDS011;551;48.524;9.056;2022-12-20T04:36:53;44.40;;;27.17;;
505;SDS011;551;48.524;9.056;2022-12-20T04:39:18;44.37;;;25.23;;
505;SDS011;551;48.524;9.056;2022-12-20T04:41:44;43.00;;;27.40;;
505;SDS011;551;48.524;9.056;2022-12-20T04:44:09;46.10;;;27.63;;
505;SDS011;551;48.524;9.056;2022-12-20T04:46:35;40.97;;;28.33;;
505;SDS011;551;48.524;9.056;2022-12-20T04:49:02;45.60;;;27.33;;
505;SDS011;551;48.524;9.056;2022-12-20T04:51:30;45.90;;;28.53;;
505;SDS011;551;48.524;9.056;2022-12-20T04:53:56;43.70;;;27.20;;
505;SDS011;551;48.524;9.056;2022-12-20T04:56:23;40.23;;;25.23;;
505;SDS011;551;48.524;9.056;2022-12-20T04:58:51;43.80;;;26.17;;
505;SDS011;551;48.524;9.056;2022-12-20T05:01:18;43.30;;;26.37;;
505;SDS011;551;48.524;9.056;2022-12-20T05:03:44;43.43;;;24.60;;
505;SDS011;551;48.524;9.056;2022-12-20T05:06:10;46.13;;;25.70;;
505;SDS011;551;48.524;9.056;2022-12-20T05:08:36;42.30;;;25.63;;
505;SDS011;551;48.524;9.056;2022-12-20T05:11:03;41.40;;;25.97;;
505;SDS011;551;48.524;9.056;2022-12-20T05:13:29;38.73;;;24.73;;
505;SDS011;551;48.524;9.056;2022-12-20T05:15:55;40.57;;;25.50;;
505;SDS011;551;48.524;9.056;2022-12-20T05:18:21;47.23;;;25.73;;
505;SDS011;551;48.524;9.056;2022-12-20T05:20:47;41.07;;;23.03;;
505;SDS011;551;48.524;9.056;2022-12-20T05:23:33;41.83;;;25.57;;
505;SDS011;551;48.524;9.056;2022-12-20T05:26:17;46.20;;;25.20;;
505;SDS011;551;48.524;9.056;2022-12-20T05:28:43;43.27;;;25.30;;
505;SDS011;551;48.524;9.056;2022-12-20T05:31:08;46.00;;;26.80;;
505;SDS011;551;48.524;9.056;2022-12-20T05:33:34;43.67;;;26.20;;
505;SDS011;551;48.524;9.056;2022-12-20T05:35:59;42.23;;;26.00;;
505;SDS011;551;48.524;9.056;2022-12-20T05:38:25;37.07;;;24.63;;
505;SDS011;551;48.524;9.056;2022-12-20T05:40:51;41.73;;;26.70;;
505;SDS011;551;48.524;9.056;2022-12-20T05:43:17;43.07;;;25.70;;
505;SDS011;551;48.524;9.056;2022-12-20T05:45:46;44.73;;;25.23;;
505;SDS011;551;48.524;9.056;2022-12-20T05:48:17;42.30;;;26.00;;
505;SDS011;551;48.524;9.056;2022-12-20T05:50:44;39.77;;;25.20;;
505;SDS011;551;48.524;9.056;2022-12-20T05:53:11;51.03;;;28.07;;
505;SDS011;551;48.524;9.056;2022-12-20T05:55:45;43.40;;;26.70;;
505;SDS011;551;48.524;9.056;2022-12-20T05:58:14;41.13;;;24.00;;
505;SDS011;551;48.524;9.056;2022-12-20T06:00:40;41.33;;;27.17;;
505;SDS011;551;48.524;9.056;2022-12-20T06:03:07;47.87;;;28.20;;
505;SDS011;551;48.524;9.056;2022-12-20T06:05:34;49.53;;;27.80;;
505;SDS011;551;48.524;9.056;2022-12-20T06:08:00;42.20;;;27.27;;
505;SDS011;551;48.524;9.056;2022-12-20T06:10:27;41.43;;;25.87;;
505;SDS011;551;48.524;9.056;2022-12-20T06:12:52;39.60;;;24.37;;
505;SDS011;551;48.524;9.056;2022-12-20T06:15:18;40.33;;;24.43;;
505;SDS011;551;48.524;9.056;2022-12-20T06:17:43;39.77;;;25.67;;
505;SDS011;551;48.524;9.056;2022-12-20T06:20:09;46.10;;;26.00;;
505;SDS011;551;48.524;9.056;2022-12-20T06:22:36;39.67;;;24.63;;
505;SDS011;551;48.524;9.056;2022-12-20T06:25:01;40.97;;;24.90;;
505;SDS011;551;48.524;9.056;2022-12-20T06:27:27;40.10;;;24.07;;
505;SDS011;551;48.524;9.056;2022-12-20T06:29:52;40.20;;;26.40;;
505;SDS011;551;48.524;9.056;2022-12-20T06:32:18;42.73;;;24.00;;
505;SDS011;551;48.524;9.056;2022-12-20T06:34:44;40.17;;;22.70;;
505;SDS011;551;48.524;9.056;2022-12-20T06:37:10;46.37;;;26.97;;
505;SDS011;551;48.524;9.056;2022-12-20T06:39:35;41.43;;;24.23;;
505;SDS011;551;48.524;9.056;2022-12-20T06:42:01;35.97;;;23.80;;
505;SDS011;551;48.524;9.056;2022-12-20T06:44:27;36.47;;;24.60;;
505;SDS011;551;48.524;9.056;2022-12-20T06:46:52;41.10;;;22.70;;
505;SDS011;551;48.524;9.056;2022-12-20T06:49:18;45.97;;;24.90;;
505;SDS011;551;48.524;9.056;2022-12-20T06:51:43;37.73;;;23.10;;
505;SDS011;551;48.524;9.056;2022-12-20T06:54:09;35.97;;;23.27;;
505;SDS011;551;48.524;9.056;2022-12-20T06:56:34;39.03;;;23.17;;
505;SDS011;551;48.524;9.056;2022-12-20T06:59:00;36.30;;;22.90;;
505;SDS011;551;48.524;9.056;2022-12-20T07:01:26;36.10;;;23.03;;
505;SDS011;551;48.524;9.056;2022-12-20T07:03:51;31.27;;;22.10;;
505;SDS011;551;48.524;9.056;2022-12-20T07:06:17;33.03;;;21.50;;
505;SDS011;551;48.524;9.056;2022-12-20T07:08:42;40.43;;;23.53;;
505;SDS011;551;48.524;9.056;2022-12-20T07:11:08;40.43;;;23.70;;
505;SDS011;551;48.524;9.056;2022-12-20T07:13:34;34.90;;;23.40;;
505;SDS011;551;48.524;9.056;2022-12-20T07:16:00;35.27;;;22.73;;
505;SDS011;551;48.524;9.056;2022-12-20T07:18:27;32.03;;;22.23;;
505;SDS011;551;48.524;9.056;2022-12-20T07:20:53;51.33;;;25.40;;
505;SDS011;551;48.524;9.056;2022-12-20T07:23:18;41.17;;;23.83;;
505;SDS011;551;48.524;9.056;2022-12-20T07:25:51;38.27;;;24.37;;
505;SDS011;551;48.524;9.056;2022-12-20T07:28:18;43.50;;;25.60;;
505;SDS011;551;48.524;9.056;2022-12-20T07:30:44;44.77;;;25.60;;
505;SDS011;551;48.524;9.056;2022-12-20T07:33:09;45.30;;;27.27;;
505;SDS011;551;48.524;9.056;2022-12-20T07:35:35;50.70;;;28.30;;
505;SDS011;551;48.524;9.056;2022-12-20T07:38:01;42.07;;;25.57;;
505;SDS011;551;48.524;9.056;2022-12-20T07:40:26;49.50;;;28.00;;
505;SDS011;551;48.524;9.056;2022-12-20T07:42:52;48.40;;;26.63;;
505;SDS011;551;48.524;9.056;2022-12-20T07:45:17;41.77;;;24.30;;
505;SDS011;551;48.524;9.056;2022-12-20T07:47:43;40.63;;;24.10;;
505;SDS011;551;48.524;9.056;2022-12-20T07:50:08;47.13;;;24.77;;
505;SDS011;551;48.524;9.056;2022-12-20T07:52:34;34.60;;;23.30;;
505;SDS011;551;48.524;9.056;2022-12-20T07:55:01;45.43;;;24.57;;
505;SDS011;551;48.524;9.056;2022-12-20T07:57:39;39.60;;;24.83;;
505;SDS011;551;48.524;9.056;2022-12-20T08:00:14;40.77;;;21.30;;
505;SDS011;551;48.524;9.056;2022-12-20T08:02:43;37.47;;;22.23;;
505;SDS011;551;48.524;9.056;2022-12-20T08:05:16;36.60;;;22.80;;
505;SDS011;551;48.524;9.056;2022-12-20T08:07:42;36.47;;;21.10;;
505;SDS011;551;48.524;9.056;2022-12-20T08:10:10;35.83;;;21.13;;
505;SDS011;551;48.524;9.056;2022-12-20T08:12:38;32.33;;;20.53;;
505;SDS011;551;48.524;9.056;2022-12-20T08:15:05;29.97;;;20.50;;
505;SDS011;551;48.524;9.056;2022-12-20T08:17:31;32.87;;;21.10;;
505;SDS011;551;48.524;9.056;2022-12-20T08:19:57;29.73;;;18.20;;
505;SDS011;551;48.524;9.056;2022-12-20T08:22:24;33.87;;;20.57;;
505;SDS011;551;48.524;9.056;2022-12-20T08:24:50;25.53;;;18.53;;
505;SDS011;551;48.524;9.056;2022-12-20T08:27:15;33.73;;;20.43;;
505;SDS011;551;48.524;9.056;2022-12-20T08:29:41;34.50;;;19.47;;
505;SDS011;551;48.524;9.056;2022-12-20T08:32:07;31.07;;;20.90;;
505;SDS011;551;48.524;9.056;2022-12-20T08:34:33;30.07;;;18.67;;
505;SDS011;551;48.524;9.056;2022-12-20T08:36:58;30.43;;;18.67;;
505;SDS011;551;48.524;9.056;2022-12-20T08:39:24;27.63;;;17.70;;
505;SDS011;551;48.524;9.056;2022-12-20T08:41:49;30.70;;;17.00;;
505;SDS011;551;48.524;9.056;2022-12-20T08:44:15;32.23;;;18.13;;
505;SDS011;551;48.524;9.056;2022-12-20T08:46:40;32.47;;;20.50;;
505;SDS011;551;48.524;9.056;2022-12-20T08:49:06;31.07;;;19.33;;
505;SDS011;551;48.524;9.056;2022-12-20T08:51:31;31.40;;;18.93;;
505;SDS011;551;48.524;9.056;2022-12-20T08:53:57;33.40;;;18.63;;
505;SDS011;551;48.524;9.056;2022-12-20T08:56:22;30.60;;;19.33;;
505;SDS011;551;48.524;9.056;2022-12-20T08:58:48;27.50;;;19.40;;
505;SDS011;551;48.524;9.056;2022-12-20T09:01:15;30.33;;;19.17;;
505;SDS011;551;48.524;9.056;2022-12-20T09:03:42;28.87;;;18.93;;
505;SDS011;551;48.524;9.056;2022-12-20T09:06:10;26.10;;;19.40;;
505;SDS011;551;48.524;9.056;2022-12-20T09:08:38;34.50;;;18.40;;
505;SDS011;551;48.524;9.056;2022-12-20T09:11:05;36.00;;;18.67;;
505;SDS011;551;48.524;9.056;2022-12-20T09:13:38;27.70;;;19.30;;
505;SDS011;551;48.524;9.056;2022-12-20T09:16:05;28.40;;;19.33;;
505;SDS011;551;48.524;9.056;2022-12-20T09:18:32;33.90;;;19.40;;
505;SDS011;551;48.524;9.056;2022-12-20T09:20:59;27.10;;;18.83;;
505;SDS011;551;48.524;9.056;2022-12-20T09:23:25;31.40;;;19.92;;
505;SDS011;551;48.524;9.056;2022-12-20T09:25:51;30.07;;;18.10;;
505;SDS011;551;48.524;9.056;2022-12-20T09:28:17;31.23;;;19.17;;
505;SDS011;551;48.524;9.056;2022-12-20T09:30:43;29.60;;;17.83;;
505;SDS011;551;48.524;9.056;2022-12-20T09:33:09;26.37;;;19.43;;
505;SDS011;551;48.524;9.056;2022-12-20T09:35:34;31.70;;;19.77;;
505;SDS011;551;48.524;9.056;2022-12-20T09:38:00;32.10;;;19.20;;
505;SDS011;551;48.524;9.056;2022-12-20T09:40:27;33.17;;;19.07;;
505;SDS011;551;48.524;9.056;2022-12-20T09:42:56;32.63;;;19.13;;
505;SDS011;551;48.524;9.056;2022-12-20T09:45:24;25.00;;;17.70;;
505;SDS011;551;48.524;9.056;2022-12-20T09:47:52;32.73;;;18.67;;
505;SDS011;551;48.524;9.056;2022-12-20T09:50:18;28.13;;;16.53;;
505;SDS011;551;48.524;9.056;2022-12-20T09:53:10;22.83;;;15.63;;
505;SDS011;551;48.524;9.056;2022-12-20T09:55:50;29.40;;;18.67;;
505;SDS011;551;48.524;9.056;2022-12-20T10:01:14;34.73;;;20.40;;
505;SDS011;551;48.524;9.056;2022-12-20T10:03:43;31.83;;;21.60;;
505;SDS011;551;48.524;9.056;2022-12-20T10:14:12;22.07;;;16.63;;
505;SDS011;551;48.524;9.056;2022-12-20T10:19:59;29.07;;;18.80;;
505;SDS011;551;48.524;9.056;2022-12-20T10:22:47;27.57;;;18.07;;
505;SDS011;551;48.524;9.056;2022-12-20T10:25:21;36.00;;;19.57;;
505;SDS011;551;48.524;9.056;2022-12-20T10:27:48;21.80;;;17.20;;
505;SDS011;551;48.524;9.056;2022-12-20T10:30:18;27.13;;;16.73;;
505;SDS011;551;48.524;9.056;2022-12-20T10:32:47;34.10;;;18.70;;
505;SDS011;551;48.524;9.056;2022-12-20T10:37:57;26.80;;;17.50;;
505;SDS011;551;48.524;9.056;2022-12-20T10:40:26;28.10;;;19.57;;
505;SDS011;551;48.524;9.056;2022-12-20T10:42:57;30.27;;;19.13;;
505;SDS011;551;48.524;9.056;2022-12-20T10:45:34;29.83;;;21.03;;
505;SDS011;551;48.524;9.056;2022-12-20T10:48:05;28.07;;;19.57;;
505;SDS011;551;48.524;9.056;2022-12-20T10:53:27;31.73;;;20.57;;
505;SDS011;551;48.524;9.056;2022-12-20T10:56:06;31.50;;;19.63;;
505;SDS011;551;48.524;9.056;2022-12-20T10:58:57;29.07;;;19.73;;
505;SDS011;551;48.524;9.056;2022-12-20T11:01:28;29.50;;;18.63;;
505;SDS011;551;48.524;9.056;2022-12-20T11:04:00;21.67;;;17.80;;
505;SDS011;551;48.524;9.056;2022-12-20T11:06:49;27.20;;;19.30;;
505;SDS011;551;48.524;9.056;2022-12-20T11:09:29;25.90;;;17.50;;
505;SDS011;551;48.524;9.056;2022-12-20T11:12:01;26.90;;;18.73;;
505;SDS011;551;48.524;9.056;2022-12-20T11:14:36;25.53;;;17.43;;
505;SDS011;551;48.524;9.056;2022-12-20T11:17:13;22.70;;;17.87;;
505;SDS011;551;48.524;9.056;2022-12-20T11:20:00;26.50;;;18.17;;
505;SDS011;551;48.524;9.056;2022-12-20T11:25:24;26.50;;;18.93;;
505;SDS011;551;48.524;9.056;2022-12-20T11:30:24;30.23;;;17.73;;
505;SDS011;551;48.524;9.056;2022-12-20T11:33:20;26.77;;;16.50;;
505;SDS011;551;48.524;9.056;2022-12-20T11:36:02;28.93;;;17.23;;
505;SDS011;551;48.524;9.056;2022-12-20T11:38:38;31.30;;;18.67;;
505;SDS011;551;48.524;9.056;2022-12-20T11:41:07;36.37;;;18.40;;
505;SDS011;551;48.524;9.056;2022-12-20T11:44:05;26.87;;;18.70;;
505;SDS011;551;48.524;9.056;2022-12-20T11:51:59;29.67;;;18.03;;
505;SDS011;551;48.524;9.056;2022-12-20T11:54:35;32.13;;;18.07;;
505;SDS011;551;48.524;9.056;2022-12-20T11:57:26;35.50;;;23.60;;
505;SDS011;551;48.524;9.056;2022-12-20T11:59:57;42.20;;;20.77;;
505;SDS011;551;48.524;9.056;2022-12-20T12:02:36;30.40;;;20.70;;
505;SDS011;551;48.524;9.056;2022-12-20T12:05:16;28.27;;;20.33;;
505;SDS011;551;48.524;9.056;2022-12-20T12:07:46;34.63;;;21.17;;
505;SDS011;551;48.524;9.056;2022-12-20T12:10:18;29.33;;;21.27;;
505;SDS011;551;48.524;9.056;2022-12-20T12:12:52;32.13;;;20.40;;
505;SDS011;551;48.524;9.056;2022-12-20T12:15:34;32.83;;;20.30;;
505;SDS011;551;48.524;9.056;2022-12-20T12:18:16;37.03;;;21.40;;
505;SDS011;551;48.524;9.056;2022-12-20T12:25:54;38.30;;;23.77;;
505;SDS011;551;48.524;9.056;2022-12-20T12:28:20;39.17;;;24.93;;
505;SDS011;551;48.524;9.056;2022-12-20T12:30:55;33.30;;;20.70;;
505;SDS011;551;48.524;9.056;2022-12-20T12:33:29;24.70;;;19.30;;
505;SDS011;551;48.524;9.056;2022-12-20T12:47:05;29.33;;;19.00;;
505;SDS011;551;48.524;9.056;2022-12-20T12:49:39;22.47;;;16.97;;
505;SDS011;551;48.524;9.056;2022-12-20T12:52:06;28.37;;;18.93;;
505;SDS011;551;48.524;9.056;2022-12-20T12:54:52;25.93;;;17.13;;
505;SDS011;551;48.524;9.056;2022-12-20T12:57:18;35.30;;;18.17;;
505;SDS011;551;48.524;9.056;2022-12-20T12:59:44;28.20;;;18.47;;
505;SDS011;551;48.524;9.056;2022-12-20T13:05:37;29.93;;;19.07;;
505;SDS011;551;48.524;9.056;2022-12-20T13:15:01;31.53;;;19.37;;
505;SDS011;551;48.524;9.056;2022-12-20T13:19:53;25.33;;;18.50;;
505;SDS011;551;48.524;9.056;2022-12-20T13:22:23;25.63;;;19.17;;
505;SDS011;551;48.524;9.056;2022-12-20T13:24:51;26.13;;;17.43;;
505;SDS011;551;48.524;9.056;2022-12-20T13:27:36;25.10;;;17.50;;
505;SDS011;551;48.524;9.056;2022-12-20T13:37:53;29.00;;;18.80;;
505;SDS011;551;48.524;9.056;2022-12-20T13:48:25;31.87;;;21.27;;
505;SDS011;551;48.524;9.056;2022-12-20T13:50:55;37.20;;;20.53;;
505;SDS011;551;48.524;9.056;2022-12-20T13:53:22;30.40;;;20.70;;
505;SDS011;551;48.524;9.056;2022-12-20T13:55:51;30.37;;;19.93;;
505;SDS011;551;48.524;9.056;2022-12-20T13:58:18;29.53;;;19.00;;
505;SDS011;551;48.524;9.056;2022-12-20T14:00:44;26.77;;;17.97;;
505;SDS011;551;48.524;9.056;2022-12-20T14:03:21;24.60;;;16.73;;
505;SDS011;551;48.524;9.056;2022-12-20T14:05:51;24.00;;;16.33;;
505;SDS011;551;48.524;9.056;2022-12-20T14:08:23;22.90;;;17.70;;
505;SDS011;551;48.524;9.056;2022-12-20T14:11:05;33.10;;;17.03;;
505;SDS011;551;48.524;9.056;2022-12-20T14:13:54;30.70;;;15.63;;
505;SDS011;551;48.524;9.056;2022-12-20T14:16:22;25.13;;;15.83;;
505;SDS011;551;48.524;9.056;2022-12-20T14:18:50;30.83;;;15.10;;
505;SDS011;551;48.524;9.056;2022-12-20T14:21:21;29.70;;;15.10;;
505;SDS011;551;48.524;9.056;2022-12-20T14:23:49;25.97;;;14.93;;
505;SDS011;551;48.524;9.056;2022-12-20T14:26:40;33.67;;;21.07;;
505;SDS011;551;48.524;9.056;2022-12-20T14:29:11;35.47;;;24.97;;
505;SDS011;551;48.524;9.056;2022-12-20T14:31:43;38.10;;;23.10;;
505;SDS011;551;48.524;9.056;2022-12-20T14:34:16;31.70;;;23.70;;
505;SDS011;551;48.524;9.056;2022-12-20T14:36:46;31.13;;;21.17;;
505;SDS011;551;48.524;9.056;2022-12-20T14:39:26;35.13;;;22.80;;
505;SDS011;551;48.524;9.056;2022-12-20T14:41:54;33.57;;;20.60;;
505;SDS011;551;48.524;9.056;2022-12-20T14:44:21;28.70;;;20.53;;
505;SDS011;551;48.524;9.056;2022-12-20T14:46:49;34.53;;;22.73;;
505;SDS011;551;48.524;9.056;2022-12-20T14:54:49;30.00;;;21.13;;
505;SDS011;551;48.524;9.056;2022-12-20T14:57:24;28.93;;;21.27;;
505;SDS011;551;48.524;9.056;2022-12-20T15:02:40;25.03;;;19.27;;
505;SDS011;551;48.524;9.056;2022-12-20T15:13:35;38.07;;;22.40;;
505;SDS011;551;48.524;9.056;2022-12-20T15:16:04;30.60;;;21.50;;
505;SDS011;551;48.524;9.056;2022-12-20T15:18:38;30.30;;;20.67;;
505;SDS011;551;48.524;9.056;2022-12-20T15:21:05;31.60;;;20.53;;
505;SDS011;551;48.524;9.056;2022-12-20T15:23:34;38.03;;;18.00;;
505;SDS011;551;48.524;9.056;2022-12-20T15:26:00;26.27;;;19.80;;
505;SDS011;551;48.524;9.056;2022-12-20T15:28:26;28.17;;;20.90;;
505;SDS011;551;48.524;9.056;2022-12-20T15:30:52;25.97;;;19.90;;
505;SDS011;551;48.524;9.056;2022-12-20T15:33:22;21.27;;;17.30;;
505;SDS011;551;48.524;9.056;2022-12-20T15:35:49;27.73;;;19.10;;
505;SDS011;551;48.524;9.056;2022-12-20T15:38:17;31.80;;;21.10;;
505;SDS011;551;48.524;9.056;2022-12-20T15:40:45;30.83;;;22.10;;
505;SDS011;551;48.524;9.056;2022-12-20T15:43:12;33.63;;;21.50;;
505;SDS011;551;48.524;9.056;2022-12-20T15:45:40;32.40;;;21.20;;
505;SDS011;551;48.524;9.056;2022-12-20T15:48:12;35.83;;;22.37;;
505;SDS011;551;48.524;9.056;2022-12-20T15:50:40;36.80;;;23.63;;
505;SDS011;551;48.524;9.056;2022-12-20T15:53:14;34.43;;;23.87;;
505;SDS011;551;48.524;9.056;2022-12-20T15:55:41;41.70;;;27.33;;
505;SDS011;551;48.524;9.056;2022-12-20T15:58:07;32.33;;;24.00;;
505;SDS011;551;48.524;9.056;2022-12-20T16:00:35;38.20;;;23.40;;
505;SDS011;551;48.524;9.056;2022-12-20T16:03:04;40.43;;;24.00;;
505;SDS011;551;48.524;9.056;2022-12-20T16:05:32;45.93;;;25.70;;
505;SDS011;551;48.524;9.056;2022-12-20T16:07:59;34.27;;;24.10;;
505;SDS011;551;48.524;9.056;2022-12-20T16:10:24;37.50;;;24.20;;
505;SDS011;551;48.524;9.056;2022-12-20T16:12:50;33.00;;;21.17;;
505;SDS011;551;48.524;9.056;2022-12-20T16:15:20;31.70;;;21.90;;
505;SDS011;551;48.524;9.056;2022-12-20T16:17:46;33.13;;;19.83;;
505;SDS011;551;48.524;9.056;2022-12-20T16:20:11;33.37;;;20.53;;
505;SDS011;551;48.524;9.056;2022-12-20T16:22:37;32.50;;;21.50;;
505;SDS011;551;48.524;9.056;2022-12-20T16:25:02;35.67;;;22.90;;
505;SDS011;551;48.524;9.056;2022-12-20T16:27:28;40.87;;;23.50;;
505;SDS011;551;48.524;9.056;2022-12-20T16:29:54;32.53;;;22.10;;
505;SDS011;551;48.524;9.056;2022-12-20T16:32:19;30.10;;;20.67;;
505;SDS011;551;48.524;9.056;2022-12-20T16:34:45;36.70;;;22.93;;
505;SDS011;551;48.524;9.056;2022-12-20T16:37:13;38.40;;;26.20;;
505;SDS011;551;48.524;9.056;2022-12-20T16:39:39;36.03;;;23.83;;
505;SDS011;551;48.524;9.056;2022-12-20T16:42:15;37.67;;;24.30;;
505;SDS011;551;48.524;9.056;2022-12-20T16:44:41;39.63;;;25.30;;
505;SDS011;551;48.524;9.056;2022-12-20T16:47:08;43.90;;;29.07;;
505;SDS011;551;48.524;9.056;2022-12-20T16:49:34;37.67;;;24.60;;
505;SDS011;551;48.524;9.056;2022-12-20T16:52:00;47.33;;;27.03;;
505;SDS011;551;48.524;9.056;2022-12-20T16:54:28;33.23;;;24.57;;
505;SDS011;551;48.524;9.056;2022-12-20T16:56:53;36.33;;;23.43;;
505;SDS011;551;48.524;9.056;2022-12-20T16:59:20;38.00;;;24.47;;
505;SDS011;551;48.524;9.056;2022-12-20T17:01:50;31.13;;;22.20;;
505;SDS011;551;48.524;9.056;2022-12-20T17:04:17;42.17;;;23.80;;
505;SDS011;551;48.524;9.056;2022-12-20T17:06:43;33.27;;;23.80;;
505;SDS011;551;48.524;9.056;2022-12-20T17:09:09;34.00;;;22.50;;
505;SDS011;551;48.524;9.056;2022-12-20T17:11:35;31.70;;;21.67;;
505;SDS011;551;48.524;9.056;2022-12-20T17:14:02;34.93;;;23.87;;
505;SDS011;551;48.524;9.056;2022-12-20T17:16:28;36.13;;;22.13;;
505;SDS011;551;48.524;9.056;2022-12-20T17:18:55;32.20;;;21.67;;
505;SDS011;551;48.524;9.056;2022-12-20T17:21:22;31.10;;;22.27;;